Time;durP1;ratioP1;P1;durP2;ratioP2;P2;SDS_P1;SDS_P2;PMS_P1;PMS_P2;Temp;Humidity;BMP_temperature;BMP_pressure;BME280_temperature;BME280_humidity;BME280_pressure;Samples;Min_cycle;Max_cycle;Signal;HPM_P1;HPM_P2
2023/07/05 00:00:48;;;;;;;;;4.33;4.33;;;;;26.49;40.99;100820.66;5057206;28;45402;-76
2023/07/05 00:03:14;;;;;;;;;7.67;5.33;;;;;26.50;41.37;100815.13;5057394;28;45407;-76
2023/07/05 00:05:39;;;;;;;;;7.33;4.00;;;;;26.56;41.24;100817.97;5057074;28;45400;-76
2023/07/05 00:08:05;;;;;;;;;4.00;3.00;;;;;26.58;41.21;100821.22;5090636;27;48169;-76
2023/07/05 00:10:31;;;;;;;;;4.67;4.00;;;;;26.58;41.08;100814.06;5075383;28;45438;-76
2023/07/05 00:12:56;;;;;;;;;4.33;4.33;;;;;26.58;41.26;100821.22;5075304;28;45252;-76
2023/07/05 00:15:21;;;;;;;;;5.00;3.33;;;;;26.61;40.93;100826.16;5057043;28;45616;-76
2023/07/05 00:17:47;;;;;;;;;4.00;4.00;;;;;26.60;40.88;100833.34;5057076;28;46528;-76
2023/07/05 00:20:13;;;;;;;;;5.00;4.00;;;;;26.66;40.78;100836.19;5056515;28;45394;-76
2023/07/05 00:22:38;;;;;;;;;5.00;4.00;;;;;26.66;41.29;100836.19;5075180;28;45395;-76
2023/07/05 00:25:04;;;;;;;;;4.33;3.00;;;;;26.67;40.89;100830.66;5059304;28;45309;-76
2023/07/05 00:27:30;;;;;;;;;4.00;3.00;;;;;26.68;41.37;100834.13;5094186;27;47296;-76
2023/07/05 00:29:55;;;;;;;;;9.00;4.33;;;;;26.69;41.43;100828.59;5059994;28;46303;-76
2023/07/05 00:32:21;;;;;;;;;7.00;6.00;;;;;26.74;41.16;100844.78;5060522;28;45336;-75
2023/07/05 00:34:46;;;;;;;;;3.33;3.33;;;;;26.74;40.77;100857.28;5094103;27;45353;-76
2023/07/05 00:37:12;;;;;;;;;6.00;4.00;;;;;26.76;40.69;100857.06;5093289;27;47292;-76
2023/07/05 00:39:37;;;;;;;;;4.33;3.33;;;;;26.74;40.66;100849.28;5078234;28;45376;-76
2023/07/05 00:42:04;;;;;;;;;4.67;4.00;;;;;26.75;40.63;100856.28;5060096;28;45395;-76
2023/07/05 00:44:29;;;;;;;;;4.00;4.00;;;;;26.68;40.73;100848.28;5078179;28;45323;-76
2023/07/05 00:47:23;;;;;;;;;4.33;3.00;;;;;26.82;41.22;100873.06;5059808;28;46528;-76
2023/07/05 00:49:49;;;;;;;;;6.33;2.00;;;;;26.80;41.03;100868.97;5077730;28;45400;-76
2023/07/05 00:52:17;;;;;;;;;5.33;3.33;;;;;26.83;40.87;100873.88;5059632;28;45459;-77
2023/07/05 00:54:51;;;;;;;;;3.33;3.00;;;;;26.85;40.58;100882.50;5078169;28;45392;-76
2023/07/05 00:57:27;;;;;;;;;4.33;4.33;;;;;26.82;41.07;100881.09;5077213;28;45767;-76
2023/07/05 01:00:02;;;;;;;;;5.00;4.00;;;;;26.87;40.64;100895.63;5078037;28;45339;-76
2023/07/05 01:02:29;;;;;;;;;3.33;3.33;;;;;26.88;40.99;100907.97;5075023;28;45356;-77
2023/07/05 01:04:56;;;;;;;;;3.67;3.67;;;;;26.84;41.01;100904.88;5059389;28;45347;-77
2023/07/05 01:07:21;;;;;;;;;3.67;3.67;;;;;26.88;41.11;100910.63;5077615;28;46670;-76
2023/07/05 01:09:47;;;;;;;;;4.67;3.67;;;;;26.88;40.77;100914.09;5076503;28;45398;-76
2023/07/05 01:12:25;;;;;;;;;4.00;2.67;;;;;26.87;40.97;100899.13;5059513;28;45404;-77
2023/07/05 01:15:02;;;;;;;;;3.33;2.00;;;;;26.91;41.01;100912.84;5059630;28;45368;-76
2023/07/05 01:17:46;;;;;;;;;4.00;3.00;;;;;26.94;40.76;100918.59;5076859;28;45485;-76
2023/07/05 01:20:36;;;;;;;;;3.00;3.00;;;;;26.94;40.46;100929.28;5058645;28;45904;-76
2023/07/05 01:23:29;;;;;;;;;2.67;2.67;;;;;26.93;40.56;100924.97;5077754;28;45446;-76
2023/07/05 01:26:24;;;;;;;;;4.00;4.00;;;;;26.80;40.71;100917.03;5077506;28;45454;-76
2023/07/05 01:29:18;;;;;;;;;4.00;4.00;;;;;26.94;40.78;100934.63;5077317;28;46305;-75
2023/07/05 01:32:08;;;;;;;;;3.00;3.00;;;;;26.95;40.34;100944.28;5059231;28;45685;-75
2023/07/05 01:34:46;;;;;;;;;3.33;3.00;;;;;26.97;40.43;100936.03;5058619;28;45454;-76
2023/07/05 01:37:26;;;;;;;;;2.00;2.00;;;;;26.94;40.44;100947.13;5076799;28;45513;-75
2023/07/05 01:39:51;;;;;;;;;4.67;3.33;;;;;26.93;41.07;100946.31;5076368;28;45612;-75
2023/07/05 01:42:20;;;;;;;;;3.33;3.33;;;;;26.94;40.88;100936.47;5058700;28;45364;-75
2023/07/05 01:44:45;;;;;;;;;5.00;4.00;;;;;26.97;40.84;100944.06;5059341;28;45291;-76
2023/07/05 01:47:32;;;;;;;;;4.00;4.00;;;;;27.00;40.26;100950.81;5077227;28;45508;-76
2023/07/05 01:50:03;;;;;;;;;4.33;2.33;;;;;26.99;40.02;100952.66;5057688;28;47688;-75
2023/07/05 01:53:07;;;;;;;;;5.33;2.67;;;;;26.99;40.58;100950.00;5076817;28;45384;-75
2023/07/05 01:55:44;;;;;;;;;4.00;4.00;;;;;26.96;40.99;100953.91;5076818;28;45383;-76
2023/07/05 01:58:18;;;;;;;;;5.33;4.00;;;;;26.97;40.90;100954.72;5077376;28;45536;-76
2023/07/05 02:00:46;;;;;;;;;3.33;3.33;;;;;27.02;40.69;100972.78;5077060;28;46093;-76
2023/07/05 02:03:16;;;;;;;;;4.67;4.67;;;;;27.00;41.00;100965.00;5058500;28;45302;-76
2023/07/05 02:05:43;;;;;;;;;4.00;4.00;;;;;26.99;40.77;100966.00;5076837;28;45266;-75
2023/07/05 02:08:08;;;;;;;;;2.33;2.33;;;;;27.04;40.68;100979.53;5076972;28;45331;-75
2023/07/05 02:10:34;;;;;;;;;6.00;4.00;;;;;27.02;40.66;100973.59;5076751;28;47162;-76
2023/07/05 02:13:03;;;;;;;;;4.00;4.00;;;;;27.03;40.31;100982.44;5058245;28;45351;-75
2023/07/05 02:15:29;;;;;;;;;6.00;5.00;;;;;27.05;40.51;100983.88;5076138;28;45702;-77
2023/07/05 02:17:54;;;;;;;;;3.00;2.00;;;;;27.06;40.75;100992.69;5076239;28;45731;-77
2023/07/05 02:20:20;;;;;;;;;4.00;4.00;;;;;27.02;40.41;100973.59;5058504;28;45802;-75
2023/07/05 02:22:45;;;;;;;;;5.00;3.67;;;;;27.03;40.43;100982.44;5076733;28;45366;-76
2023/07/05 02:25:10;;;;;;;;;2.00;2.00;;;;;27.07;40.51;100986.31;5058547;28;45329;-76
2023/07/05 02:27:37;;;;;;;;;4.00;3.67;;;;;27.05;40.50;100991.06;5076901;28;45570;-75
2023/07/05 02:30:04;;;;;;;;;4.67;3.00;;;;;27.05;40.23;100991.88;5076533;28;46408;-76
2023/07/05 02:32:30;;;;;;;;;3.33;2.33;;;;;27.09;40.74;100999.47;5057962;28;46061;-75
2023/07/05 02:35:00;;;;;;;;;7.67;3.00;;;;;27.10;40.56;100996.56;5076398;28;45326;-75
2023/07/05 02:37:25;;;;;;;;;4.00;3.33;;;;;27.03;40.21;100983.25;5076549;28;45335;-76
2023/07/05 02:39:53;;;;;;;;;4.00;4.00;;;;;27.05;40.53;100991.06;5076261;28;46394;-76
2023/07/05 02:42:19;;;;;;;;;3.00;2.67;;;;;27.09;40.58;101008.28;5075695;28;45308;-75
2023/07/05 02:44:48;;;;;;;;;4.00;3.00;;;;;27.04;40.86;100986.72;5057827;28;45339;-76
2023/07/05 02:47:14;;;;;;;;;4.67;3.00;;;;;27.07;40.85;100997.00;5075425;28;45271;-75
2023/07/05 02:49:39;;;;;;;;;4.00;3.00;;;;;27.05;40.20;101001.72;5076113;28;46300;-75
2023/07/05 02:52:05;;;;;;;;;2.33;2.33;;;;;27.08;40.41;101006.66;5056643;28;45667;-75
2023/07/05 02:54:30;;;;;;;;;4.00;4.00;;;;;27.08;40.17;101009.34;5076409;28;45300;-76
2023/07/05 02:56:56;;;;;;;;;2.00;2.00;;;;;27.09;40.56;101024.31;5058162;28;45360;-76
2023/07/05 02:59:22;;;;;;;;;4.33;3.33;;;;;27.10;40.61;101009.09;5057982;28;47983;-76
2023/07/05 03:01:47;;;;;;;;;3.00;2.00;;;;;27.11;40.82;101018.78;5074556;28;45490;-76
2023/07/05 03:04:13;;;;;;;;;3.00;3.00;;;;;27.07;40.22;101019.19;5076220;28;45433;-76
2023/07/05 03:06:39;;;;;;;;;3.67;3.67;;;;;27.10;40.23;101025.13;5076204;28;45350;-76
2023/07/05 03:09:04;;;;;;;;;2.33;2.33;;;;;27.08;40.66;101022.69;5075821;28;47036;-76
2023/07/05 03:11:29;;;;;;;;;4.67;3.67;;;;;27.07;40.41;101018.34;5075850;28;45386;-76
2023/07/05 03:13:55;;;;;;;;;5.33;4.00;;;;;27.10;40.29;101014.44;5075838;28;45296;-76
2023/07/05 03:16:20;;;;;;;;;3.00;3.00;;;;;27.14;40.37;101021.06;5057570;28;45637;-75
2023/07/05 03:18:46;;;;;;;;;4.67;3.33;;;;;27.11;40.56;101019.59;5057464;28;48390;-76
2023/07/05 03:21:11;;;;;;;;;1.67;1.67;;;;;27.11;40.55;101021.44;5076136;28;45418;-76
2023/07/05 03:23:36;;;;;;;;;2.67;1.33;;;;;27.13;40.38;101030.91;5057527;28;45471;-75
2023/07/05 03:26:07;;;;;;;;;4.33;2.00;;;;;27.12;40.24;101039.09;5075867;28;45435;-75
2023/07/05 03:28:35;;;;;;;;;4.33;3.00;;;;;27.09;40.26;101031.50;5075727;28;46463;-76
2023/07/05 03:31:01;;;;;;;;;2.33;2.33;;;;;27.15;40.29;101041.38;5075567;28;45571;-76
2023/07/05 03:33:27;;;;;;;;;3.67;3.00;;;;;27.14;39.95;101047.75;5075800;28;45350;-76
2023/07/05 03:36:00;;;;;;;;;3.67;2.00;;;;;27.14;40.54;101045.88;5057213;28;45432;-76
2023/07/05 03:38:27;;;;;;;;;2.33;2.33;;;;;27.10;40.26;101038.47;5056933;28;47175;-76
2023/07/05 03:41:05;;;;;;;;;3.00;3.00;;;;;27.15;40.41;101052.06;5057582;28;45269;-76
2023/07/05 03:43:35;;;;;;;;;3.00;2.67;;;;;27.15;39.88;101054.72;5057188;28;45453;-76
2023/07/05 03:46:02;;;;;;;;;2.33;2.00;;;;;27.12;40.02;101055.94;5057402;28;45409;-75
2023/07/05 03:48:30;;;;;;;;;2.00;2.00;;;;;27.06;40.53;101048.78;5057319;28;45716;-76
2023/07/05 03:50:57;;;;;;;;;3.33;2.33;;;;;27.16;40.07;101070.56;5075009;28;45324;-75
2023/07/05 03:53:23;;;;;;;;;4.00;4.00;;;;;27.16;40.04;101078.56;5064329;28;45312;-75
2023/07/05 03:55:48;;;;;;;;;3.00;2.67;;;;;27.15;40.39;101068.06;5075510;28;45450;-76
2023/07/05 03:58:14;;;;;;;;;3.33;3.33;;;;;27.13;40.28;101070.97;5056514;28;47134;-76
2023/07/05 04:00:39;;;;;;;;;2.00;2.00;;;;;27.14;40.34;101079.81;5078639;28;45340;-76
2023/07/05 04:03:04;;;;;;;;;2.00;2.00;;;;;27.09;40.21;101072.38;5060788;28;45395;-75
2023/07/05 04:05:30;;;;;;;;;2.67;1.33;;;;;27.08;40.13;101078.75;5078996;28;45470;-76
2023/07/05 04:07:55;;;;;;;;;2.00;2.00;;;;;27.14;40.19;101091.28;5078624;28;46927;-76
2023/07/05 04:10:21;;;;;;;;;1.33;1.33;;;;;27.12;40.24;101079.97;5078744;28;45347;-75
2023/07/05 04:12:46;;;;;;;;;2.00;2.00;;;;;27.12;40.16;101081.81;5060319;28;45427;-75
2023/07/05 04:15:11;;;;;;;;;3.00;3.00;;;;;27.10;40.32;101081.22;5078648;28;45328;-75
2023/07/05 04:17:36;;;;;;;;;3.67;3.00;;;;;27.09;39.91;101083.06;5078894;28;46208;-76
2023/07/05 04:20:03;;;;;;;;;2.00;1.00;;;;;27.14;39.90;101095.84;5059804;28;45479;-75
2023/07/05 04:22:33;;;;;;;;;2.67;2.00;;;;;27.12;39.85;101092.50;5060446;28;45357;-75
2023/07/05 04:24:58;;;;;;;;;2.00;1.33;;;;;27.13;40.11;101094.19;5060398;28;45430;-76
2023/07/05 04:27:24;;;;;;;;;3.75;2.00;;;;;27.15;40.06;101097.44;5077928;28;47232;-76
2023/07/05 04:29:49;;;;;;;;;1.00;1.00;;;;;27.14;39.68;101106.50;5060325;28;46044;-76
2023/07/05 04:32:14;;;;;;;;;1.00;1.00;;;;;27.07;39.57;101085.94;5078663;28;45450;-76
2023/07/05 04:34:40;;;;;;;;;2.33;2.33;;;;;27.14;39.73;101095.84;5060048;28;45616;-76
2023/07/05 04:37:06;;;;;;;;;3.33;3.33;;;;;27.19;40.06;101104.03;5078309;28;45519;-76
2023/07/05 04:39:32;;;;;;;;;2.67;1.00;;;;;27.18;39.80;101102.38;5059608;28;45989;-76
2023/07/05 04:41:57;;;;;;;;;1.00;1.00;;;;;27.18;39.90;101097.03;5059903;28;45357;-75
2023/07/05 04:44:23;;;;;;;;;2.00;2.00;;;;;27.20;40.25;101094.16;5077900;28;45206;-76
2023/07/05 04:46:48;;;;;;;;;1.67;1.67;;;;;27.21;40.00;101104.63;5077328;28;45683;-76
2023/07/05 04:49:13;;;;;;;;;3.33;2.33;;;;;27.24;40.07;101111.41;5078215;28;45442;-76
2023/07/05 04:51:39;;;;;;;;;3.67;2.33;;;;;27.21;39.59;101107.31;5055949;28;45490;-76
2023/07/05 04:54:04;;;;;;;;;1.67;1.67;;;;;27.18;39.91;101097.88;5076566;28;45472;-76
2023/07/05 04:56:30;;;;;;;;;1.00;1.00;;;;;27.21;39.56;101101.97;5077915;28;45401;-76
2023/07/05 04:58:56;;;;;;;;;5.00;2.00;;;;;27.23;39.69;101105.25;5059746;28;45455;-76
2023/07/05 05:01:22;;;;;;;;;2.67;2.67;;;;;27.26;39.70;101117.38;5059914;28;45475;-75
2023/07/05 05:03:48;;;;;;;;;2.00;2.00;;;;;27.26;39.57;101117.38;5077963;28;45342;-76
2023/07/05 05:06:13;;;;;;;;;1.67;1.67;;;;;27.24;39.64;101116.75;5076486;28;46422;-76
2023/07/05 05:08:38;;;;;;;;;1.00;1.00;;;;;27.24;39.92;101120.25;5077438;28;45351;-76
2023/07/05 05:11:04;;;;;;;;;3.00;0.67;;;;;27.26;40.12;101120.84;5077303;28;45419;-75
2023/07/05 05:13:32;;;;;;;;;1.33;1.33;;;;;27.20;39.48;101121.69;5059335;28;45673;-74
2023/07/05 05:15:58;;;;;;;;;2.33;2.00;;;;;27.24;39.74;101127.44;5077672;28;46553;-74
2023/07/05 05:18:26;;;;;;;;;1.00;1.00;;;;;27.25;39.46;101127.22;5077565;28;45284;-75
2023/07/05 05:20:52;;;;;;;;;2.00;2.00;;;;;27.23;39.85;101129.28;5059587;28;45457;-74
2023/07/05 05:23:17;;;;;;;;;1.00;1.00;;;;;27.25;39.72;101137.06;5059544;28;45389;-74
2023/07/05 05:25:45;;;;;;;;;2.00;2.00;;;;;27.26;39.26;101134.22;5077263;28;45628;-75
2023/07/05 05:28:12;;;;;;;;;1.67;1.67;;;;;27.25;39.82;101142.41;5076834;28;45447;-74
2023/07/05 05:30:38;;;;;;;;;3.00;2.00;;;;;27.22;39.49;101140.19;5077635;28;45422;-77
2023/07/05 05:33:04;;;;;;;;;1.33;1.33;;;;;27.21;40.12;101136.69;5059341;28;45592;-75
2023/07/05 05:35:31;;;;;;;;;2.00;1.33;;;;;27.22;40.14;101138.31;5077248;28;46184;-75
2023/07/05 05:37:56;;;;;;;;;0.67;0.67;;;;;27.10;38.76;101122.09;5077381;28;45230;-75
2023/07/05 05:40:22;;;;;;;;;2.00;1.00;;;;;27.18;39.09;101137.09;5048415;28;45535;-75
2023/07/05 05:42:47;;;;;;;;;1.00;1.00;;;;;27.17;39.97;101143.47;5062333;28;45546;-78
2023/07/05 05:45:13;;;;;;;;;1.67;1.67;;;;;27.17;40.00;101138.94;5077345;28;45304;-75
2023/07/05 05:47:38;;;;;;;;;1.00;1.00;;;;;27.21;40.26;101150.03;5058104;28;45510;-74
2023/07/05 05:50:04;;;;;;;;;3.00;1.00;;;;;27.24;39.83;101152.31;5076588;28;45668;-75
2023/07/05 05:52:30;;;;;;;;;2.67;1.00;;;;;27.24;40.42;101154.16;5075681;28;45440;-75
2023/07/05 05:54:55;;;;;;;;;3.00;3.00;;;;;27.23;40.05;101152.50;5055011;28;46461;-74
2023/07/05 05:57:20;;;;;;;;;4.00;1.00;;;;;27.20;39.67;101152.91;5064848;28;45450;-73
2023/07/05 05:59:46;;;;;;;;;2.00;2.00;;;;;27.18;40.23;101153.13;5057471;28;45507;-73
2023/07/05 06:02:11;;;;;;;;;2.00;2.00;;;;;27.24;40.13;101154.16;5076202;28;45425;-73
2023/07/05 06:04:37;;;;;;;;;2.00;1.00;;;;;27.23;39.86;101157.84;5091763;27;46420;-73
2023/07/05 06:07:02;;;;;;;;;2.00;2.00;;;;;27.25;40.34;101166.47;5057996;28;45605;-73
2023/07/05 06:09:28;;;;;;;;;1.00;1.00;;;;;27.24;39.90;101154.16;5076320;28;45280;-74
2023/07/05 06:11:53;;;;;;;;;1.00;1.00;;;;;27.26;39.73;101155.59;5058754;28;45380;-74
2023/07/05 06:14:18;;;;;;;;;0.00;0.00;;;;;27.27;40.79;101165.22;5058351;28;47164;-74
2023/07/05 06:16:43;;;;;;;;;2.00;1.00;;;;;27.28;40.10;101163.38;5076633;28;45248;-75
2023/07/05 06:19:09;;;;;;;;;2.00;1.00;;;;;27.27;40.13;101156.41;5058406;28;45357;-74
2023/07/05 06:21:34;;;;;;;;;3.00;2.00;;;;;27.29;40.39;101168.53;5057402;28;45647;-74
2023/07/05 06:24:00;;;;;;;;;2.00;1.00;;;;;27.27;40.27;101159.88;5076229;28;46495;-74
2023/07/05 06:26:25;;;;;;;;;2.00;1.00;;;;;27.27;40.10;101157.22;5058334;28;45930;-75
2023/07/05 06:28:50;;;;;;;;;4.00;2.00;;;;;27.29;40.72;101157.03;5076721;28;45474;-74
2023/07/05 06:31:17;;;;;;;;;1.00;1.00;;;;;27.31;40.68;101167.47;5064341;28;45568;-75
2023/07/05 06:33:43;;;;;;;;;2.67;1.00;;;;;27.30;40.52;101161.31;5075163;28;45496;-74
2023/07/05 06:36:09;;;;;;;;;0.67;0.67;;;;;27.35;40.40;101172.19;5074832;28;45418;-75
2023/07/05 06:38:35;;;;;;;;;0.33;0.33;;;;;27.31;40.32;101156.78;5074910;28;45409;-74
2023/07/05 06:41:00;;;;;;;;;2.00;2.00;;;;;27.37;40.43;101166.66;5072794;28;45678;-74
2023/07/05 06:43:27;;;;;;;;;1.67;1.00;;;;;27.34;40.76;101162.56;5057040;28;45488;-75
2023/07/05 06:45:55;;;;;;;;;2.00;2.00;;;;;27.34;40.86;101165.22;5074519;28;45427;-75
2023/07/05 06:48:21;;;;;;;;;1.00;1.00;;;;;27.33;39.94;101162.75;5057900;28;45325;-75
2023/07/05 06:50:55;;;;;;;;;1.67;1.67;;;;;27.37;40.01;101167.50;5075385;28;45487;-75
2023/07/05 06:53:21;;;;;;;;;2.00;2.00;;;;;27.39;40.30;101176.09;5073414;28;46824;-78
2023/07/05 06:55:48;;;;;;;;;1.00;1.00;;;;;27.39;40.62;101175.28;5075363;28;45382;-77
2023/07/05 06:58:14;;;;;;;;;4.00;1.00;;;;;27.37;40.38;101166.66;5075318;28;45385;-76
2023/07/05 07:00:39;;;;;;;;;1.00;1.00;;;;;27.40;39.84;101175.06;5075423;28;45435;-76
2023/07/05 07:03:05;;;;;;;;;5.00;2.00;;;;;27.44;40.20;101171.97;5091058;27;47222;-77
2023/07/05 07:05:31;;;;;;;;;4.33;0.67;;;;;27.41;40.32;101173.22;5075508;28;45315;-75
2023/07/05 07:07:56;;;;;;;;;1.00;1.00;;;;;27.42;39.87;101174.88;5075768;28;45465;-76
2023/07/05 07:10:22;;;;;;;;;2.00;1.00;;;;;27.47;39.62;101180.41;5075998;28;45349;-77
2023/07/05 07:12:47;;;;;;;;;2.00;1.67;;;;;27.45;40.02;101184.31;5075579;28;45808;-77
2023/07/05 07:15:12;;;;;;;;;3.67;2.00;;;;;27.45;39.88;101193.16;5057651;28;45226;-83
2023/07/05 07:18:24;;;;;;;;;2.67;0.67;;;;;27.48;40.30;101187.38;5075875;27;45393;-84
2023/07/05 07:20:59;;;;;;;;;5.33;1.33;;;;;27.44;39.50;101193.34;5036582;28;45508;-83
2023/07/05 07:23:25;;;;;;;;;3.00;3.00;;;;;27.48;40.48;101198.06;5055411;28;45577;-79
2023/07/05 07:26:20;;;;;;;;;3.33;1.67;;;;;27.49;40.38;101197.03;5051279;28;45383;-87
2023/07/05 07:28:48;;;;;;;;;3.00;3.00;;;;;27.48;40.33;101211.41;5048583;28;45361;-75
2023/07/05 07:31:15;;;;;;;;;0.33;0.33;;;;;27.40;40.56;101199.09;5054625;28;45535;-74
2023/07/05 07:33:40;;;;;;;;;1.33;1.33;;;;;27.49;40.49;101209.56;5057227;28;46390;-75
2023/07/05 07:36:14;;;;;;;;;2.00;2.00;;;;;27.49;39.55;101206.91;5060243;28;45377;-75
2023/07/05 07:38:41;;;;;;;;;7.00;1.00;;;;;27.45;40.23;101203.03;5059754;28;45343;-78
2023/07/05 07:41:15;;;;;;;;;4.00;2.00;;;;;27.38;39.88;101200.34;5059125;28;45250;-78
2023/07/05 07:43:41;;;;;;;;;5.67;2.00;;;;;27.42;40.13;101200.75;5041036;28;47208;-78
2023/07/05 07:46:11;;;;;;;;;1.33;1.33;;;;;27.43;39.54;101200.53;5058444;28;45369;-79
2023/07/05 07:48:39;;;;;;;;;4.67;3.67;;;;;27.51;39.06;101223.53;5058514;28;45352;-78
2023/07/05 07:51:04;;;;;;;;;2.00;1.00;;;;;27.47;39.44;101209.78;5058552;28;45560;-78
2023/07/05 07:53:29;;;;;;;;;1.00;1.00;;;;;27.48;39.48;101215.97;5040635;28;46190;-77
2023/07/05 07:55:54;;;;;;;;;1.00;1.00;;;;;27.45;39.44;101205.69;5058389;28;45374;-78
2023/07/05 07:58:20;;;;;;;;;4.00;2.00;;;;;27.48;39.25;101216.75;5059342;28;45356;-78
2023/07/05 08:00:45;;;;;;;;;2.67;2.67;;;;;27.39;38.98;101207.34;5074667;28;45535;-78
2023/07/05 08:03:10;;;;;;;;;2.00;1.33;;;;;27.44;39.12;101214.72;5057995;28;46387;-78
2023/07/05 08:05:36;;;;;;;;;2.33;1.00;;;;;27.41;38.73;101221.31;5040146;28;45321;-78
2023/07/05 08:08:02;;;;;;;;;5.33;2.00;;;;;27.45;38.69;101227.06;5057760;28;45415;-78
2023/07/05 08:10:28;;;;;;;;;2.67;1.33;;;;;27.46;39.31;101232.19;5074395;28;45441;-78
2023/07/05 08:12:53;;;;;;;;;2.67;1.67;;;;;27.40;38.74;101225.03;5057752;28;45400;-78
2023/07/05 08:15:19;;;;;;;;;3.33;2.33;;;;;27.43;39.00;101229.13;5040062;28;45420;-79
2023/07/05 08:17:44;;;;;;;;;1.00;1.00;;;;;27.39;38.41;101231.38;5058521;28;45940;-79
2023/07/05 08:20:10;;;;;;;;;2.00;1.00;;;;;27.44;38.80;101247.63;5039622;28;45570;-78
2023/07/05 08:22:35;;;;;;;;;2.00;2.00;;;;;27.42;38.87;101246.19;5040139;28;46071;-78
2023/07/05 08:25:01;;;;;;;;;1.00;1.00;;;;;27.44;38.39;101254.81;5057605;28;45322;-78
2023/07/05 08:27:26;;;;;;;;;1.00;1.00;;;;;27.43;38.50;101253.19;5056815;28;45375;-78
2023/07/05 08:29:52;;;;;;;;;2.00;2.00;;;;;27.42;38.76;101255.03;5057208;28;45404;-78
2023/07/05 08:32:19;;;;;;;;;4.00;2.33;;;;;27.37;38.39;101260.16;5056174;28;47477;-78
2023/07/05 08:34:45;;;;;;;;;1.00;1.00;;;;;27.45;38.01;101264.47;5057723;28;45409;-78
2023/07/05 08:37:10;;;;;;;;;1.67;1.67;;;;;27.39;38.54;101268.78;5057986;28;45399;-78
2023/07/05 08:39:35;;;;;;;;;2.00;2.00;;;;;27.39;38.64;101271.47;5057613;28;45662;-78
2023/07/05 08:42:23;;;;;;;;;2.00;2.00;;;;;27.44;38.49;101277.00;5056844;28;47817;-78
2023/07/05 08:44:51;;;;;;;;;4.67;1.67;;;;;27.45;38.42;101267.16;5038932;28;45508;-78
2023/07/05 08:47:28;;;;;;;;;3.00;3.00;;;;;27.46;38.31;101272.28;5057807;28;45336;-78
2023/07/05 08:50:24;;;;;;;;;1.67;1.00;;;;;27.45;38.26;101267.16;5057063;28;45303;-78
2023/07/05 08:52:53;;;;;;;;;4.33;2.00;;;;;27.54;38.56;101273.09;5045182;28;45313;-78
2023/07/05 08:55:24;;;;;;;;;6.67;2.33;;;;;27.51;38.40;101264.47;5039532;28;45412;-78
2023/07/05 08:57:54;;;;;;;;;2.67;2.00;;;;;27.53;38.12;101272.28;5040972;28;45344;-79
2023/07/05 09:00:39;;;;;;;;;4.33;2.00;;;;;27.51;37.69;101267.13;5056008;28;45355;-79
2023/07/05 09:03:12;;;;;;;;;0.00;0.00;;;;;27.47;37.86;101260.56;5057246;28;47246;-78
2023/07/05 09:06:03;;;;;;;;;2.00;2.00;;;;;27.53;38.31;101266.94;5039259;28;45688;-78
2023/07/05 09:08:48;;;;;;;;;2.33;1.00;;;;;27.57;38.36;101275.34;5057597;28;45264;-78
2023/07/05 09:11:25;;;;;;;;;2.67;2.00;;;;;27.56;37.98;101287.88;5057437;28;45246;-79
2023/07/05 09:14:03;;;;;;;;;3.33;1.33;;;;;27.51;37.76;101277.81;5057342;28;47002;-78
2023/07/05 09:16:45;;;;;;;;;2.00;2.00;;;;;27.55;37.64;101280.06;5057195;28;45485;-78
2023/07/05 09:19:26;;;;;;;;;5.00;2.00;;;;;27.55;37.98;101296.94;5064066;28;45416;-79
2023/07/05 09:21:58;;;;;;;;;2.67;1.00;;;;;27.56;37.89;101300.44;5071936;28;45271;-79
2023/07/05 09:24:31;;;;;;;;;2.00;2.00;;;;;27.54;37.66;101295.28;5057310;28;45545;-78
2023/07/05 09:27:04;;;;;;;;;1.00;1.00;;;;;27.58;37.73;101298.38;5077246;28;45275;-79
2023/07/05 09:29:38;;;;;;;;;2.00;2.00;;;;;27.63;38.28;101303.94;5077381;28;45621;-79
2023/07/05 09:32:11;;;;;;;;;2.00;2.00;;;;;27.62;37.63;101294.25;5076736;27;45652;-78
2023/07/05 09:34:39;;;;;;;;;3.00;2.00;;;;;27.69;37.75;101299.59;5075654;28;47276;-78
2023/07/05 09:37:13;;;;;;;;;2.33;1.67;;;;;27.68;37.78;101290.75;5077304;28;45414;-79
2023/07/05 09:39:49;;;;;;;;;2.00;2.00;;;;;27.74;37.75;101292.59;5075907;28;45424;-78
2023/07/05 09:42:23;;;;;;;;;1.00;1.00;;;;;27.72;37.41;101289.31;5064300;28;45389;-79
2023/07/05 09:44:49;;;;;;;;;3.00;2.00;;;;;27.74;37.79;101303.28;5076908;27;46398;-79
2023/07/05 09:47:14;;;;;;;;;2.00;1.33;;;;;27.72;37.48;101301.84;5076651;27;45213;-79
2023/07/05 09:49:40;;;;;;;;;2.00;2.00;;;;;27.77;37.66;101309.22;5077012;28;45418;-78
2023/07/05 09:52:13;;;;;;;;;1.00;1.00;;;;;27.79;37.40;101317.88;5076492;27;45483;-78
2023/07/05 09:54:41;;;;;;;;;3.00;1.33;;;;;27.79;37.68;101324.03;5076787;28;45532;-78
2023/07/05 09:57:09;;;;;;;;;4.00;3.00;;;;;27.76;37.63;101307.59;5075907;28;45488;-79
2023/07/05 09:59:36;;;;;;;;;2.00;2.00;;;;;27.85;37.49;101327.75;5072476;28;45390;-79
2023/07/05 10:02:12;;;;;;;;;2.00;2.00;;;;;27.91;37.64;101332.28;5076037;28;45371;-79
2023/07/05 10:04:46;;;;;;;;;2.00;2.00;;;;;27.79;37.49;101308.00;5076512;28;46353;-79
2023/07/05 10:07:35;;;;;;;;;3.00;2.00;;;;;27.92;37.14;101330.44;5076594;27;45313;-78
2023/07/05 10:10:08;;;;;;;;;1.33;1.33;;;;;27.96;37.42;101332.47;5076612;28;45266;-79
2023/07/05 10:12:40;;;;;;;;;3.00;2.00;;;;;28.00;37.84;101340.09;5075388;28;45320;-79
2023/07/05 10:15:24;;;;;;;;;2.00;1.67;;;;;27.96;36.99;101335.16;5076096;28;45385;-79
2023/07/05 10:18:03;;;;;;;;;2.67;2.67;;;;;28.03;37.52;101334.31;5131029;27;45423;-78
2023/07/05 10:20:37;;;;;;;;;2.33;1.33;;;;;28.05;37.29;101346.44;5113857;27;45565;-78
2023/07/05 10:23:05;;;;;;;;;3.33;2.00;;;;;28.01;37.26;101336.38;5113493;27;45283;-78
2023/07/05 10:25:38;;;;;;;;;0.33;0.33;;;;;28.04;37.13;101333.28;5112672;27;45526;-78
2023/07/05 10:28:05;;;;;;;;;3.00;2.00;;;;;28.04;37.25;101333.28;5113027;27;46474;-78
2023/07/05 10:30:30;;;;;;;;;3.00;3.00;;;;;28.10;36.86;101345.00;5112857;27;45358;-78
2023/07/05 10:33:20;;;;;;;;;2.67;2.00;;;;;28.06;37.02;101340.06;5113017;27;45322;-77
2023/07/05 10:36:10;;;;;;;;;2.00;2.00;;;;;28.11;37.06;101347.44;5113383;27;45455;-78
2023/07/05 10:38:42;;;;;;;;;2.33;2.33;;;;;28.11;36.73;101341.28;5113333;27;45664;-78
2023/07/05 10:41:19;;;;;;;;;2.67;2.67;;;;;28.12;36.79;101351.78;5113012;27;45398;-78
2023/07/05 10:43:53;;;;;;;;;2.33;1.67;;;;;28.09;36.81;101349.53;5112936;27;45543;-77
2023/07/05 10:46:22;;;;;;;;;3.33;3.33;;;;;28.14;36.97;101348.88;5112778;27;45362;-78
2023/07/05 10:48:49;;;;;;;;;0.67;0.67;;;;;28.11;36.52;101351.97;5090769;27;47021;-78
2023/07/05 10:51:20;;;;;;;;;5.67;2.00;;;;;28.06;36.47;101344.59;5105360;27;45421;-78
2023/07/05 10:54:05;;;;;;;;;3.00;3.00;;;;;28.08;36.89;101358.56;5111844;27;45435;-81
2023/07/05 10:56:33;;;;;;;;;0.33;0.33;;;;;28.16;37.43;101357.50;5098303;27;45574;-76
2023/07/05 10:59:36;;;;;;;;;2.00;2.00;;;;;28.13;37.38;101340.03;5109501;27;47502;-76
2023/07/05 11:02:07;;;;;;;;;1.33;1.33;;;;;28.14;36.95;101357.75;5106288;27;45724;-76
2023/07/05 11:04:34;;;;;;;;;2.67;2.00;;;;;28.09;36.69;101343.34;5102360;27;45343;-76
2023/07/05 11:07:10;;;;;;;;;2.00;2.00;;;;;28.10;36.73;101345.81;5108041;27;45461;-76
2023/07/05 11:09:36;;;;;;;;;5.67;2.33;;;;;28.07;37.30;101348.91;5106194;27;45535;-76
2023/07/05 11:12:05;;;;;;;;;3.67;1.00;;;;;28.10;36.70;101351.19;5107310;27;45399;-76
2023/07/05 11:14:32;;;;;;;;;2.33;2.33;;;;;28.17;36.96;101367.19;5107517;27;45378;-77
2023/07/05 11:16:58;;;;;;;;;2.00;2.00;;;;;28.11;36.47;101351.97;5107464;27;45609;-76
2023/07/05 11:19:29;;;;;;;;;1.67;1.00;;;;;28.15;36.63;101359.38;5110631;27;47228;-76
2023/07/05 11:21:55;;;;;;;;;3.00;1.67;;;;;28.15;36.54;101370.09;5111836;27;45422;-74
2023/07/05 11:24:38;;;;;;;;;2.00;1.00;;;;;28.18;36.08;101375.00;5112219;27;45469;-75
2023/07/05 11:27:24;;;;;;;;;2.33;2.33;;;;;28.19;36.39;101378.50;5112349;27;45417;-75
2023/07/05 11:29:53;;;;;;;;;4.00;3.00;;;;;28.09;36.56;101359.38;5075393;28;46435;-73
2023/07/05 11:32:28;;;;;;;;;2.00;2.00;;;;;28.17;36.41;101369.88;5075533;28;45303;-73
2023/07/05 11:34:55;;;;;;;;;2.67;2.67;;;;;28.16;36.37;101366.38;5057464;28;45308;-73